Time;durP1;ratioP1;P1;durP2;ratioP2;P2;SDS_P1;SDS_P2;PMS_P1;PMS_P2;Temp;Humidity;BMP_temperature;BMP_pressure;BME280_temperature;BME280_humidity;BME280_pressure;Samples;Min_cycle;Max_cycle;Signal;HPM_P1;HPM_P2
2023/11/12 00:00:19;;;;;;;;;49.00;40.75;;;;;;;;5051640;28;11565;-84
2023/11/12 00:02:46;;;;;;;;;43.75;37.25;;;;;;;;5051378;28;11514;-83
2023/11/12 00:05:17;;;;;;;;;37.50;31.75;;;;;;;;5042777;28;11508;-82
2023/11/12 00:07:45;;;;;;;;;36.25;36.00;;;;;;;;5030867;28;12308;-82
2023/11/12 00:10:12;;;;;;;;;39.00;36.25;;;;;;;;5051898;28;11435;-81
2023/11/12 00:12:42;;;;;;;;;41.50;36.50;;;;;;;;5051903;28;11607;-83
2023/11/12 00:15:10;;;;;;;;;27.25;27.25;;;;;;;;5051498;28;11523;-83
2023/11/12 00:17:37;;;;;;;;;21.25;21.25;;;;;;;;5038422;28;11448;-84
2023/11/12 00:20:12;;;;;;;;;27.50;21.75;;;;;;;;5049938;28;11444;-83
2023/11/12 00:22:43;;;;;;;;;26.00;22.25;;;;;;;;5050936;28;11618;-83
2023/11/12 00:25:13;;;;;;;;;25.00;24.25;;;;;;;;5042356;28;11456;-86
2023/11/12 00:27:41;;;;;;;;;27.00;26.00;;;;;;;;5038374;28;11494;-84
2023/11/12 00:30:09;;;;;;;;;31.00;28.25;;;;;;;;5051692;28;11577;-85
2023/11/12 00:32:36;;;;;;;;;34.00;31.00;;;;;;;;5057341;28;11552;-84
2023/11/12 00:35:05;;;;;;;;;30.50;26.25;;;;;;;;5058206;28;11502;-84
2023/11/12 00:37:35;;;;;;;;;37.50;32.50;;;;;;;;5057771;28;11610;-84
2023/11/12 00:40:04;;;;;;;;;31.75;31.25;;;;;;;;5052944;28;11491;-85
2023/11/12 00:42:31;;;;;;;;;22.75;22.75;;;;;;;;5055314;28;11440;-85
2023/11/12 00:44:59;;;;;;;;;25.25;21.00;;;;;;;;5051741;28;11447;-84
2023/11/12 00:47:26;;;;;;;;;22.75;21.25;;;;;;;;5034191;28;11446;-85
2023/11/12 00:49:53;;;;;;;;;27.50;22.25;;;;;;;;5054333;28;11454;-85
2023/11/12 00:52:21;;;;;;;;;26.75;21.50;;;;;;;;5053949;28;11454;-85
2023/11/12 00:54:48;;;;;;;;;26.00;20.75;;;;;;;;5052294;28;12237;-86
2023/11/12 00:57:17;;;;;;;;;24.25;20.00;;;;;;;;5050933;28;11423;-84
2023/11/12 00:59:46;;;;;;;;;30.00;24.00;;;;;;;;5049881;28;11453;-84
2023/11/12 01:02:16;;;;;;;;;19.75;19.50;;;;;;;;5049512;28;11458;-81
2023/11/12 01:04:46;;;;;;;;;19.25;15.25;;;;;;;;5047378;28;11247;-82
2023/11/12 01:07:13;;;;;;;;;21.75;18.50;;;;;;;;5049253;28;11244;-82
2023/11/12 01:09:41;;;;;;;;;14.25;14.25;;;;;;;;5049899;28;11181;-82
2023/11/12 01:12:09;;;;;;;;;16.25;15.00;;;;;;;;5046597;28;11249;-82
2023/11/12 01:14:38;;;;;;;;;16.25;16.25;;;;;;;;5048226;28;11254;-83
2023/11/12 01:17:06;;;;;;;;;16.00;14.25;;;;;;;;5047838;28;11018;-82
2023/11/12 01:19:33;;;;;;;;;16.50;15.75;;;;;;;;5049724;28;10975;-81
2023/11/12 01:22:01;;;;;;;;;22.50;17.75;;;;;;;;5046029;28;11550;-84
2023/11/12 01:24:29;;;;;;;;;16.25;16.25;;;;;;;;5050224;28;11166;-84
2023/11/12 01:26:56;;;;;;;;;17.00;14.00;;;;;;;;5049919;28;11016;-84
2023/11/12 01:29:24;;;;;;;;;15.25;14.50;;;;;;;;5049421;28;11765;-84
2023/11/12 01:31:53;;;;;;;;;16.00;14.50;;;;;;;;5048980;28;11002;-84
2023/11/12 01:34:21;;;;;;;;;20.50;16.25;;;;;;;;5049808;28;10819;-84
2023/11/12 01:36:49;;;;;;;;;21.75;16.00;;;;;;;;5044262;28;10962;-85
2023/11/12 01:39:16;;;;;;;;;14.00;14.00;;;;;;;;5041834;28;11030;-86
2023/11/12 01:41:43;;;;;;;;;17.75;16.00;;;;;;;;5050383;28;10844;-85
2023/11/12 01:44:13;;;;;;;;;16.00;11.75;;;;;;;;5050300;28;11035;-84
2023/11/12 01:46:41;;;;;;;;;12.50;12.50;;;;;;;;5047064;28;10966;-85
2023/11/12 01:49:10;;;;;;;;;16.75;16.75;;;;;;;;5041105;28;11013;-83
2023/11/12 01:51:38;;;;;;;;;15.25;15.00;;;;;;;;5049082;28;10836;-83
2023/11/12 01:54:07;;;;;;;;;13.50;13.25;;;;;;;;5049594;28;10853;-83
2023/11/12 01:56:35;;;;;;;;;16.75;16.00;;;;;;;;5037195;28;11743;-83
2023/11/12 01:59:03;;;;;;;;;15.25;15.25;;;;;;;;5049361;28;11215;-82
2023/11/12 02:01:35;;;;;;;;;14.50;13.75;;;;;;;;5033495;28;10691;-83
2023/11/12 02:04:05;;;;;;;;;14.75;12.25;;;;;;;;5042863;28;11659;-83
2023/11/12 02:06:33;;;;;;;;;16.25;15.75;;;;;;;;5049992;28;10808;-83
2023/11/12 02:09:01;;;;;;;;;16.75;15.50;;;;;;;;5050055;28;10897;-83
2023/11/12 02:11:29;;;;;;;;;18.75;16.00;;;;;;;;5050714;28;10919;-82
2023/11/12 02:13:56;;;;;;;;;14.75;14.75;;;;;;;;5052472;28;10698;-83
2023/11/12 02:16:23;;;;;;;;;15.00;15.00;;;;;;;;5051680;28;10862;-84
2023/11/12 02:18:50;;;;;;;;;21.00;19.00;;;;;;;;5054875;28;10824;-83
2023/11/12 02:21:24;;;;;;;;;14.75;14.75;;;;;;;;5057030;28;11001;-83
2023/11/12 02:23:53;;;;;;;;;17.50;15.00;;;;;;;;5056717;28;10946;-82
2023/11/12 02:26:25;;;;;;;;;12.50;12.00;;;;;;;;5056612;28;10895;-82
2023/11/12 02:28:53;;;;;;;;;18.25;15.00;;;;;;;;5056861;28;10700;-85
2023/11/12 02:31:30;;;;;;;;;12.00;12.00;;;;;;;;5044628;28;10744;-85
2023/11/12 02:33:58;;;;;;;;;17.00;17.00;;;;;;;;5064083;28;10660;-84
2023/11/12 02:36:26;;;;;;;;;18.25;15.75;;;;;;;;5069712;28;10807;-85
2023/11/12 02:38:54;;;;;;;;;15.50;14.50;;;;;;;;5059868;28;10790;-86
2023/11/12 02:41:24;;;;;;;;;15.50;14.00;;;;;;;;5056871;28;10782;-86
2023/11/12 02:43:52;;;;;;;;;10.75;8.25;;;;;;;;5050810;28;10714;-85
2023/11/12 02:46:22;;;;;;;;;16.00;13.25;;;;;;;;5048834;28;10625;-86
2023/11/12 02:49:05;;;;;;;;;16.75;11.50;;;;;;;;5041781;28;10805;-84
2023/11/12 02:51:32;;;;;;;;;15.75;14.75;;;;;;;;5030343;28;10888;-83
2023/11/12 02:54:01;;;;;;;;;18.25;15.75;;;;;;;;5038642;28;10643;-82
2023/11/12 02:56:31;;;;;;;;;15.50;12.50;;;;;;;;5048291;28;10740;-83
2023/11/12 02:58:58;;;;;;;;;10.75;10.75;;;;;;;;5048805;28;10870;-83
2023/11/12 03:01:29;;;;;;;;;12.50;7.75;;;;;;;;5048011;28;10597;-84
2023/11/12 03:03:59;;;;;;;;;12.50;8.50;;;;;;;;5051900;28;10730;-82
2023/11/12 03:06:27;;;;;;;;;8.50;7.00;;;;;;;;5056733;28;10526;-82
2023/11/12 03:08:54;;;;;;;;;7.25;7.00;;;;;;;;5050179;28;10639;-83
2023/11/12 03:11:31;;;;;;;;;8.00;6.00;;;;;;;;5049648;28;10533;-83
2023/11/12 03:13:58;;;;;;;;;6.50;6.50;;;;;;;;5047093;28;10597;-83
2023/11/12 03:16:26;;;;;;;;;4.75;4.75;;;;;;;;5047764;28;10588;-84
2023/11/12 03:18:55;;;;;;;;;9.25;7.25;;;;;;;;5048194;28;10613;-82
2023/11/12 03:21:24;;;;;;;;;7.00;5.25;;;;;;;;5048645;28;10740;-85
2023/11/12 03:23:51;;;;;;;;;5.00;2.00;;;;;;;;5048238;28;10560;-84
2023/11/12 03:26:24;;;;;;;;;5.75;4.25;;;;;;;;5048261;28;10436;-84
2023/11/12 03:28:53;;;;;;;;;8.75;7.00;;;;;;;;5052619;28;10565;-86
2023/11/12 03:31:20;;;;;;;;;5.50;5.50;;;;;;;;5052050;28;10629;-85
2023/11/12 03:33:48;;;;;;;;;8.75;5.00;;;;;;;;5052819;28;10528;-84
2023/11/12 03:36:17;;;;;;;;;6.50;5.00;;;;;;;;5040369;28;10758;-83
2023/11/12 03:38:47;;;;;;;;;7.25;6.50;;;;;;;;5051975;28;10552;-84
2023/11/12 03:41:15;;;;;;;;;8.75;6.25;;;;;;;;5052101;28;10593;-84
2023/11/12 03:43:42;;;;;;;;;5.00;5.00;;;;;;;;5052276;28;10545;-85
2023/11/12 03:46:11;;;;;;;;;7.25;4.25;;;;;;;;5050234;28;10749;-83
2023/11/12 03:48:38;;;;;;;;;6.25;4.00;;;;;;;;5052424;28;10490;-84
2023/11/12 03:51:09;;;;;;;;;5.00;5.00;;;;;;;;5052203;28;10581;-84
2023/11/12 03:53:38;;;;;;;;;5.00;3.25;;;;;;;;5052249;28;10471;-84
2023/11/12 03:56:07;;;;;;;;;8.25;6.00;;;;;;;;5051408;28;10537;-84
2023/11/12 03:58:34;;;;;;;;;4.25;4.25;;;;;;;;5052359;28;10310;-84
2023/11/12 04:01:01;;;;;;;;;4.00;4.00;;;;;;;;5035963;28;10248;-85
2023/11/12 04:03:31;;;;;;;;;5.00;3.00;;;;;;;;5047360;28;10473;-84
2023/11/12 04:06:06;;;;;;;;;3.50;3.00;;;;;;;;5053476;28;10444;-84
2023/11/12 04:08:33;;;;;;;;;3.00;3.00;;;;;;;;5053190;28;10540;-83
2023/11/12 04:11:01;;;;;;;;;3.00;3.00;;;;;;;;5058410;28;10659;-83
2023/11/12 04:13:30;;;;;;;;;2.75;2.75;;;;;;;;5056595;28;10301;-84
2023/11/12 04:15:57;;;;;;;;;3.00;3.00;;;;;;;;5057670;28;10330;-86
2023/11/12 04:18:25;;;;;;;;;3.75;2.00;;;;;;;;5057482;28;10409;-85
2023/11/12 04:20:53;;;;;;;;;4.75;3.00;;;;;;;;5056593;28;10361;-85
2023/11/12 04:23:26;;;;;;;;;2.00;2.00;;;;;;;;5054008;28;10456;-86
2023/11/12 04:26:00;;;;;;;;;2.00;2.00;;;;;;;;5046034;28;10333;-84
2023/11/12 04:28:29;;;;;;;;;2.00;2.00;;;;;;;;5053466;28;10464;-84
2023/11/12 04:30:58;;;;;;;;;2.00;2.00;;;;;;;;5048315;28;11093;-85
2023/11/12 04:33:31;;;;;;;;;2.25;2.25;;;;;;;;5052084;28;10302;-86
2023/11/12 04:36:03;;;;;;;;;2.75;2.75;;;;;;;;5045842;28;10278;-86
2023/11/12 04:38:30;;;;;;;;;5.00;2.00;;;;;;;;5050316;28;10293;-84
2023/11/12 04:40:57;;;;;;;;;1.00;1.00;;;;;;;;5050766;28;10312;-85
2023/11/12 04:43:25;;;;;;;;;3.25;3.25;;;;;;;;5051422;28;10297;-83
2023/11/12 04:45:52;;;;;;;;;4.50;3.75;;;;;;;;5032388;28;10505;-83
2023/11/12 04:48:25;;;;;;;;;5.00;3.75;;;;;;;;5048824;28;10297;-82
2023/11/12 04:50:53;;;;;;;;;3.00;3.00;;;;;;;;5050177;28;10449;-83
2023/11/12 04:53:22;;;;;;;;;5.00;3.25;;;;;;;;5050480;28;10240;-85
2023/11/12 04:55:51;;;;;;;;;3.00;3.00;;;;;;;;5038191;28;10331;-85
2023/11/12 04:58:18;;;;;;;;;3.75;3.75;;;;;;;;5050202;28;10336;-84
2023/11/12 05:00:46;;;;;;;;;5.00;3.75;;;;;;;;5048877;28;11180;-84
2023/11/12 05:03:15;;;;;;;;;5.75;4.00;;;;;;;;5050264;28;10340;-84
2023/11/12 05:05:42;;;;;;;;;8.75;4.00;;;;;;;;5048613;28;10468;-84
2023/11/12 05:08:10;;;;;;;;;3.25;3.25;;;;;;;;5050639;28;10785;-84
2023/11/12 05:10:38;;;;;;;;;4.00;4.00;;;;;;;;5049969;28;10153;-83
2023/11/12 05:13:05;;;;;;;;;5.00;5.00;;;;;;;;5065729;28;10352;-83
2023/11/12 05:15:33;;;;;;;;;3.75;3.00;;;;;;;;5070620;28;10302;-83
2023/11/12 05:18:05;;;;;;;;;4.00;4.00;;;;;;;;5037880;28;10303;-83
2023/11/12 05:20:33;;;;;;;;;3.00;3.00;;;;;;;;5032087;28;10307;-84
2023/11/12 05:23:01;;;;;;;;;5.00;5.00;;;;;;;;5043934;28;10269;-85
2023/11/12 05:25:28;;;;;;;;;5.00;5.00;;;;;;;;5043281;28;10394;-84
2023/11/12 05:27:57;;;;;;;;;4.00;4.00;;;;;;;;5044407;28;10366;-83
2023/11/12 05:30:25;;;;;;;;;4.25;4.25;;;;;;;;5050054;28;10198;-84
2023/11/12 05:32:52;;;;;;;;;4.75;4.75;;;;;;;;5048439;28;10461;-84
2023/11/12 05:35:20;;;;;;;;;5.00;5.00;;;;;;;;5049724;28;10424;-83
2023/11/12 05:37:48;;;;;;;;;4.00;4.00;;;;;;;;5049291;28;10299;-82
2023/11/12 05:40:15;;;;;;;;;4.25;4.00;;;;;;;;5050368;28;10384;-84
2023/11/12 05:42:43;;;;;;;;;5.00;5.00;;;;;;;;5031026;28;10338;-83
2023/11/12 05:45:12;;;;;;;;;3.25;3.00;;;;;;;;5032691;28;10401;-83
2023/11/12 05:47:42;;;;;;;;;4.00;4.00;;;;;;;;5050208;28;10346;-84
2023/11/12 05:50:12;;;;;;;;;4.50;4.50;;;;;;;;5050804;28;10463;-83
2023/11/12 05:52:44;;;;;;;;;3.00;3.00;;;;;;;;5050633;28;10559;-84
2023/11/12 05:55:11;;;;;;;;;3.75;3.75;;;;;;;;5053112;28;10394;-84
2023/11/12 05:57:39;;;;;;;;;4.75;4.75;;;;;;;;5054002;28;10534;-83
2023/11/12 06:00:10;;;;;;;;;7.00;4.00;;;;;;;;5055721;28;10583;-82
2023/11/12 06:02:42;;;;;;;;;3.75;3.75;;;;;;;;5055667;28;11096;-82
2023/11/12 06:05:10;;;;;;;;;5.75;5.00;;;;;;;;5054981;28;10453;-83
2023/11/12 06:07:37;;;;;;;;;4.00;4.00;;;;;;;;5054072;28;10579;-83
2023/11/12 06:10:04;;;;;;;;;5.00;5.00;;;;;;;;5052870;28;10516;-83
2023/11/12 06:12:32;;;;;;;;;5.00;5.00;;;;;;;;5041618;28;10559;-83
2023/11/12 06:14:59;;;;;;;;;4.00;4.00;;;;;;;;5043968;28;10453;-85
2023/11/12 06:17:27;;;;;;;;;5.00;5.00;;;;;;;;5040330;28;10554;-84
2023/11/12 06:19:55;;;;;;;;;5.00;4.50;;;;;;;;5051005;28;10590;-85
2023/11/12 06:22:23;;;;;;;;;4.75;3.00;;;;;;;;5039007;28;10759;-85
2023/11/12 06:24:52;;;;;;;;;2.50;2.50;;;;;;;;5046508;28;10503;-84
2023/11/12 06:27:19;;;;;;;;;3.00;3.00;;;;;;;;5038893;28;10293;-85
2023/11/12 06:29:48;;;;;;;;;5.00;3.50;;;;;;;;5047515;28;10393;-84
2023/11/12 06:32:16;;;;;;;;;3.25;3.25;;;;;;;;5038824;28;10453;-85
2023/11/12 06:34:43;;;;;;;;;2.50;2.50;;;;;;;;5044898;28;11197;-85
2023/11/12 06:37:12;;;;;;;;;3.75;3.75;;;;;;;;5048498;28;10388;-85
2023/11/12 06:39:42;;;;;;;;;3.00;3.00;;;;;;;;5048101;28;10478;-83
2023/11/12 06:42:09;;;;;;;;;4.00;3.00;;;;;;;;5048502;28;10637;-83
2023/11/12 06:44:38;;;;;;;;;3.25;3.25;;;;;;;;5047073;28;10542;-84
2023/11/12 06:47:06;;;;;;;;;3.00;3.00;;;;;;;;5048079;28;11263;-85
2023/11/12 06:49:34;;;;;;;;;4.00;4.00;;;;;;;;5047821;28;10563;-85
2023/11/12 06:52:04;;;;;;;;;5.00;5.00;;;;;;;;5048861;28;10697;-84
2023/11/12 06:54:32;;;;;;;;;7.75;5.25;;;;;;;;5035575;28;10526;-84
2023/11/12 06:57:00;;;;;;;;;4.50;4.50;;;;;;;;5047650;28;10546;-84
2023/11/12 06:59:28;;;;;;;;;5.75;4.75;;;;;;;;5035491;28;10546;-85
2023/11/12 07:01:55;;;;;;;;;1.75;1.75;;;;;;;;5049120;28;10361;-83
2023/11/12 07:04:22;;;;;;;;;2.00;2.00;;;;;;;;5055241;28;10538;-82
2023/11/12 07:06:52;;;;;;;;;4.00;2.75;;;;;;;;5055210;28;10458;-78
2023/11/12 07:09:19;;;;;;;;;3.25;3.25;;;;;;;;5043374;28;10504;-79
2023/11/12 07:11:49;;;;;;;;;2.00;2.00;;;;;;;;5048944;28;10542;-78
2023/11/12 07:14:20;;;;;;;;;8.00;4.00;;;;;;;;5055256;28;10520;-83
2023/11/12 07:16:51;;;;;;;;;4.00;4.00;;;;;;;;5054172;28;10644;-83
2023/11/12 07:19:18;;;;;;;;;8.00;7.25;;;;;;;;5055889;28;10631;-82
2023/11/12 07:21:45;;;;;;;;;7.75;7.25;;;;;;;;5053814;28;10727;-84
2023/11/12 07:24:13;;;;;;;;;9.25;8.75;;;;;;;;5054688;28;10749;-85
2023/11/12 07:26:40;;;;;;;;;9.75;9.75;;;;;;;;5052088;28;10819;-79
2023/11/12 07:29:13;;;;;;;;;8.50;6.75;;;;;;;;5054591;28;10620;-80
2023/11/12 07:31:40;;;;;;;;;12.75;12.75;;;;;;;;5053472;28;10712;-81
2023/11/12 07:34:07;;;;;;;;;19.25;17.50;;;;;;;;5055064;28;10862;-78
2023/11/12 07:36:35;;;;;;;;;7.50;7.50;;;;;;;;5055036;28;11824;-80
2023/11/12 07:39:03;;;;;;;;;3.50;3.50;;;;;;;;5069731;28;10671;-80
2023/11/12 07:41:33;;;;;;;;;2.50;1.00;;;;;;;;5059664;28;10464;-83
2023/11/12 07:44:00;;;;;;;;;2.75;2.75;;;;;;;;5060108;28;10506;-81
2023/11/12 07:46:29;;;;;;;;;2.75;2.00;;;;;;;;5060816;28;10462;-81
2023/11/12 07:48:59;;;;;;;;;3.00;3.00;;;;;;;;5059931;28;10367;-77
2023/11/12 07:51:26;;;;;;;;;2.00;2.00;;;;;;;;5056391;28;10583;-75
2023/11/12 07:53:53;;;;;;;;;1.75;1.75;;;;;;;;5058876;28;10562;-76
2023/11/12 07:56:21;;;;;;;;;1.00;1.00;;;;;;;;5064682;28;10447;-78
2023/11/12 07:58:49;;;;;;;;;2.00;2.00;;;;;;;;5054119;28;10252;-77
2023/11/12 08:01:16;;;;;;;;;2.75;2.75;;;;;;;;5052094;28;10430;-78
2023/11/12 08:03:45;;;;;;;;;0.50;0.00;;;;;;;;5054793;28;10599;-77
2023/11/12 08:06:13;;;;;;;;;4.00;4.00;;;;;;;;5055757;28;10695;-79
2023/11/12 08:08:40;;;;;;;;;0.50;0.50;;;;;;;;5053608;28;10685;-75
2023/11/12 08:11:08;;;;;;;;;1.00;1.00;;;;;;;;5053250;28;10382;-76
2023/11/12 08:13:35;;;;;;;;;1.00;1.00;;;;;;;;5048483;28;10510;-76
2023/11/12 08:16:03;;;;;;;;;2.25;1.00;;;;;;;;5049175;28;10369;-76
2023/11/12 08:18:30;;;;;;;;;1.00;1.00;;;;;;;;5048482;28;10348;-75
2023/11/12 08:20:59;;;;;;;;;1.00;1.00;;;;;;;;5050058;28;10528;-78
2023/11/12 08:23:26;;;;;;;;;2.00;2.00;;;;;;;;5050242;28;10432;-77
2023/11/12 08:25:53;;;;;;;;;2.00;2.00;;;;;;;;5050920;28;10518;-80
2023/11/12 08:28:23;;;;;;;;;2.00;2.00;;;;;;;;5053556;28;10455;-78
2023/11/12 08:30:50;;;;;;;;;1.75;1.75;;;;;;;;5049955;28;11184;-79
2023/11/12 08:33:18;;;;;;;;;3.00;3.00;;;;;;;;5043270;28;10352;-77
2023/11/12 08:35:45;;;;;;;;;2.25;2.00;;;;;;;;5050266;28;10518;-79
2023/11/12 08:38:14;;;;;;;;;3.00;3.00;;;;;;;;5049836;28;10471;-78
2023/11/12 08:40:42;;;;;;;;;5.00;3.00;;;;;;;;5049971;28;10612;-77
2023/11/12 08:43:10;;;;;;;;;6.00;6.00;;;;;;;;5043724;28;10624;-78
2023/11/12 08:45:37;;;;;;;;;4.00;2.75;;;;;;;;5043590;28;10729;-78
2023/11/12 08:48:04;;;;;;;;;9.00;5.00;;;;;;;;5032923;28;10715;-79
2023/11/12 08:50:32;;;;;;;;;3.50;3.50;;;;;;;;5044780;28;10688;-78
2023/11/12 08:53:01;;;;;;;;;3.25;3.25;;;;;;;;5052413;28;10965;-78
2023/11/12 08:55:31;;;;;;;;;2.50;2.50;;;;;;;;5050580;28;10560;-77
2023/11/12 08:58:03;;;;;;;;;2.25;2.25;;;;;;;;5039309;28;10583;-79
2023/11/12 09:00:30;;;;;;;;;4.00;2.75;;;;;;;;5047434;28;10299;-78
2023/11/12 09:02:57;;;;;;;;;1.00;1.00;;;;;;;;5039432;28;10394;-78
2023/11/12 09:05:25;;;;;;;;;1.00;1.00;;;;;;;;5049876;28;10211;-77
2023/11/12 09:07:53;;;;;;;;;4.50;3.00;;;;;;;;5049129;28;10215;-78
2023/11/12 09:10:25;;;;;;;;;2.75;2.75;;;;;;;;5050015;28;10514;-77
2023/11/12 09:12:55;;;;;;;;;5.00;4.00;;;;;;;;5048696;28;10472;-79
2023/11/12 09:15:23;;;;;;;;;6.50;4.50;;;;;;;;5049829;28;10320;-79
2023/11/12 09:17:50;;;;;;;;;3.25;3.25;;;;;;;;5050377;28;10385;-85
2023/11/12 09:20:17;;;;;;;;;4.00;2.75;;;;;;;;5047584;28;10233;-90
2023/11/12 09:22:45;;;;;;;;;1.00;1.00;;;;;;;;5042612;28;10242;-89
2023/11/12 09:25:13;;;;;;;;;3.00;3.00;;;;;;;;5039821;28;10138;-83
2023/11/12 09:27:48;;;;;;;;;11.00;5.00;;;;;;;;5036014;28;10217;-83
2023/11/12 09:30:17;;;;;;;;;5.75;5.00;;;;;;;;5053897;28;10303;-82
2023/11/12 09:32:45;;;;;;;;;4.50;3.25;;;;;;;;5054378;28;10383;-82
2023/11/12 09:35:14;;;;;;;;;4.00;4.00;;;;;;;;5056284;28;10245;-79
2023/11/12 09:37:41;;;;;;;;;4.00;3.25;;;;;;;;5055600;28;10252;-81
2023/11/12 09:40:22;;;;;;;;;5.00;3.00;;;;;;;;5054819;28;10255;-83
2023/11/12 09:42:53;;;;;;;;;6.25;6.25;;;;;;;;5053589;28;10166;-83
2023/11/12 09:45:22;;;;;;;;;9.25;8.00;;;;;;;;5052461;28;10388;-80
2023/11/12 09:48:03;;;;;;;;;11.75;9.25;;;;;;;;5041408;28;10438;-85
2023/11/12 09:50:34;;;;;;;;;15.00;12.75;;;;;;;;5053909;28;10462;-82
2023/11/12 09:53:03;;;;;;;;;9.00;8.00;;;;;;;;5041973;28;10576;-85
2023/11/12 09:55:37;;;;;;;;;6.00;4.00;;;;;;;;5049327;28;10455;-80
2023/11/12 09:58:05;;;;;;;;;4.50;4.50;;;;;;;;5048931;28;10334;-82
2023/11/12 10:00:35;;;;;;;;;2.00;2.00;;;;;;;;5044996;28;10202;-79
2023/11/12 10:03:09;;;;;;;;;6.25;6.25;;;;;;;;5048624;28;10279;-78
2023/11/12 10:05:36;;;;;;;;;7.00;5.00;;;;;;;;5046664;28;10447;-81
2023/11/12 10:08:05;;;;;;;;;1.00;1.00;;;;;;;;5048453;28;10327;-78
2023/11/12 10:10:33;;;;;;;;;4.00;4.00;;;;;;;;5047721;28;10167;-76
2023/11/12 10:13:04;;;;;;;;;7.00;5.00;;;;;;;;5047699;28;10274;-78
2023/11/12 10:15:33;;;;;;;;;3.00;3.00;;;;;;;;5047826;28;10515;-76
2023/11/12 10:18:04;;;;;;;;;3.00;3.00;;;;;;;;5047689;28;10421;-81
2023/11/12 10:20:32;;;;;;;;;5.50;4.75;;;;;;;;5033927;28;10331;-81
2023/11/12 10:23:03;;;;;;;;;8.25;7.00;;;;;;;;5048537;28;11073;-82
2023/11/12 10:25:43;;;;;;;;;4.50;4.50;;;;;;;;5058384;28;10485;-79
2023/11/12 10:28:12;;;;;;;;;8.25;7.75;;;;;;;;5063233;28;10366;-79
2023/11/12 10:30:42;;;;;;;;;9.50;9.50;;;;;;;;5034299;28;10413;-83
2023/11/12 10:33:19;;;;;;;;;9.00;8.50;;;;;;;;5036603;28;10379;-84
2023/11/12 10:35:47;;;;;;;;;8.25;7.25;;;;;;;;5047856;28;10391;-81
2023/11/12 10:38:17;;;;;;;;;6.75;6.75;;;;;;;;5047506;28;10404;-82
2023/11/12 10:41:02;;;;;;;;;5.50;4.00;;;;;;;;5048282;28;10239;-79
2023/11/12 10:43:31;;;;;;;;;3.50;3.50;;;;;;;;5048439;28;10101;-80
2023/11/12 10:46:06;;;;;;;;;4.00;4.00;;;;;;;;5046137;28;11065;-79
2023/11/12 10:48:41;;;;;;;;;3.50;3.50;;;;;;;;5039493;28;10151;-78
2023/11/12 10:51:11;;;;;;;;;7.00;5.50;;;;;;;;5047684;28;10108;-78
2023/11/12 10:53:39;;;;;;;;;3.00;3.00;;;;;;;;5037639;28;10167;-80
2023/11/12 10:56:07;;;;;;;;;5.75;4.25;;;;;;;;5043601;28;10015;-79
2023/11/12 10:58:34;;;;;;;;;3.75;3.75;;;;;;;;5031547;28;10238;-79
2023/11/12 11:01:06;;;;;;;;;4.00;4.00;;;;;;;;5044729;28;10297;-79
2023/11/12 11:03:39;;;;;;;;;10.25;8.25;;;;;;;;5047285;28;10078;-81
2023/11/12 11:06:16;;;;;;;;;23.75;22.25;;;;;;;;5048591;28;10395;-79
2023/11/12 11:08:47;;;;;;;;;9.00;9.00;;;;;;;;5049129;28;10731;-80
2023/11/12 11:11:15;;;;;;;;;7.75;6.25;;;;;;;;5052384;28;10397;-79
2023/11/12 11:13:42;;;;;;;;;2.75;2.75;;;;;;;;5046612;28;10299;-79
2023/11/12 11:16:10;;;;;;;;;6.25;6.25;;;;;;;;5041394;28;10329;-76
2023/11/12 11:19:03;;;;;;;;;7.25;7.25;;;;;;;;5050341;28;10164;-79
2023/11/12 11:21:31;;;;;;;;;9.00;9.00;;;;;;;;5033335;28;10520;-79
2023/11/12 11:23:59;;;;;;;;;7.00;7.00;;;;;;;;5044426;28;10490;-78
2023/11/12 11:26:34;;;;;;;;;3.75;3.75;;;;;;;;5052653;28;10415;-79
2023/11/12 11:29:20;;;;;;;;;9.75;6.25;;;;;;;;5039572;28;9997;-80
2023/11/12 11:32:17;;;;;;;;;11.00;10.00;;;;;;;;5046737;28;10188;-81
2023/11/12 11:34:45;;;;;;;;;8.75;6.25;;;;;;;;4986821;28;10347;-79
2023/11/12 11:37:13;;;;;;;;;15.25;11.25;;;;;;;;5025921;28;10161;-81
2023/11/12 11:39:41;;;;;;;;;4.25;2.00;;;;;;;;5046531;28;10383;-81
2023/11/12 11:42:24;;;;;;;;;6.50;6.50;;;;;;;;5045718;28;10750;-78
2023/11/12 11:44:51;;;;;;;;;5.00;5.00;;;;;;;;5046053;28;10165;-80
2023/11/12 11:47:23;;;;;;;;;5.75;5.50;;;;;;;;5046402;28;10000;-78
2023/11/12 11:50:09;;;;;;;;;10.00;8.75;;;;;;;;5039283;28;10106;-81
2023/11/12 11:52:42;;;;;;;;;3.00;3.00;;;;;;;;5048428;28;10035;-81
2023/11/12 11:55:19;;;;;;;;;4.00;4.00;;;;;;;;5043229;28;9907;-85
2023/11/12 12:00:35;;;;;;;;;1.00;1.00;;;;;;;;5048324;28;9810;-80
2023/11/12 12:03:02;;;;;;;;;2.50;2.50;;;;;;;;5042682;28;10536;-79
2023/11/12 12:05:32;;;;;;;;;0.75;0.75;;;;;;;;5047489;28;9694;-81
2023/11/12 12:08:05;;;;;;;;;2.25;2.00;;;;;;;;5042530;28;9888;-83
2023/11/12 12:10:33;;;;;;;;;4.25;4.25;;;;;;;;5050775;28;9759;-80
2023/11/12 12:13:01;;;;;;;;;4.50;4.50;;;;;;;;5052195;28;9850;-79
2023/11/12 12:15:35;;;;;;;;;2.25;2.25;;;;;;;;5051428;28;10054;-81
2023/11/12 12:18:18;;;;;;;;;3.00;3.00;;;;;;;;5051914;28;10451;-80
2023/11/12 12:20:47;;;;;;;;;8.00;6.50;;;;;;;;5041182;28;9762;-84
2023/11/12 12:23:14;;;;;;;;;3.75;3.75;;;;;;;;5051314;28;9921;-82
2023/11/12 12:25:54;;;;;;;;;3.00;3.00;;;;;;;;5044223;28;9845;-80
2023/11/12 12:28:26;;;;;;;;;2.25;2.25;;;;;;;;5049923;28;9711;-87
2023/11/12 12:30:54;;;;;;;;;2.00;2.00;;;;;;;;5050683;28;9545;-81
2023/11/12 12:33:23;;;;;;;;;3.25;3.25;;;;;;;;5051514;28;9537;-80
2023/11/12 12:35:58;;;;;;;;;5.00;5.00;;;;;;;;5051947;28;9697;-81
2023/11/12 12:38:31;;;;;;;;;4.00;2.75;;;;;;;;5042835;28;9777;-80
2023/11/12 12:41:02;;;;;;;;;3.00;3.00;;;;;;;;5050786;28;9767;-77
2023/11/12 12:43:47;;;;;;;;;2.00;2.00;;;;;;;;5051812;28;9772;-79
2023/11/12 12:46:17;;;;;;;;;4.25;2.25;;;;;;;;5054102;28;9555;-75
2023/11/12 12:48:52;;;;;;;;;5.75;5.75;;;;;;;;5052833;28;9807;-78
2023/11/12 12:51:22;;;;;;;;;5.00;5.00;;;;;;;;5050417;28;9981;-76
2023/11/12 12:53:50;;;;;;;;;3.25;3.25;;;;;;;;5038953;28;9849;-76
2023/11/12 12:56:17;;;;;;;;;3.25;3.25;;;;;;;;5052200;28;9606;-80
2023/11/12 12:58:46;;;;;;;;;2.50;2.50;;;;;;;;5054112;28;9645;-77
2023/11/12 13:01:14;;;;;;;;;4.00;4.00;;;;;;;;5053507;28;9655;-77
2023/11/12 13:03:44;;;;;;;;;3.00;3.00;;;;;;;;5055048;28;9551;-76
2023/11/12 13:06:13;;;;;;;;;4.00;2.25;;;;;;;;5055214;28;9600;-74
2023/11/12 13:08:43;;;;;;;;;3.00;3.00;;;;;;;;5054488;28;9576;-75
2023/11/12 13:11:11;;;;;;;;;2.00;2.00;;;;;;;;5052997;28;9542;-75
2023/11/12 13:13:40;;;;;;;;;1.00;1.00;;;;;;;;5047883;28;9586;-76
2023/11/12 13:16:10;;;;;;;;;3.75;3.75;;;;;;;;5046515;28;9482;-75
2023/11/12 13:18:38;;;;;;;;;2.25;2.25;;;;;;;;5042855;28;9740;-76
2023/11/12 13:21:06;;;;;;;;;2.75;2.75;;;;;;;;5050736;28;9740;-75
2023/11/12 13:23:38;;;;;;;;;4.25;4.25;;;;;;;;5049908;28;9564;-78
2023/11/12 13:26:08;;;;;;;;;4.50;4.50;;;;;;;;5049723;28;9695;-79
2023/11/12 13:28:39;;;;;;;;;6.25;6.25;;;;;;;;5043447;28;9620;-79
2023/11/12 13:31:10;;;;;;;;;6.25;6.25;;;;;;;;5048075;28;9482;-76
2023/11/12 13:33:41;;;;;;;;;7.25;7.25;;;;;;;;5042662;28;10456;-77
2023/11/12 13:36:10;;;;;;;;;5.75;4.75;;;;;;;;5044686;28;9613;-82
2023/11/12 13:38:38;;;;;;;;;6.75;6.75;;;;;;;;5049180;28;9462;-77
2023/11/12 13:41:10;;;;;;;;;5.00;5.00;;;;;;;;5047490;28;9645;-78
2023/11/12 13:43:38;;;;;;;;;4.67;4.67;;;;;;;;5040168;28;9487;-77
2023/11/12 13:46:06;;;;;;;;;4.00;4.00;;;;;;;;5045661;28;9448;-77
2023/11/12 13:48:33;;;;;;;;;2.33;2.33;;;;;;;;5048684;28;9442;-76
2023/11/12 13:51:02;;;;;;;;;4.67;4.67;;;;;;;;5045893;28;9366;-76
2023/11/12 13:53:30;;;;;;;;;5.50;5.50;;;;;;;;5041024;28;9330;-77
2023/11/12 13:55:57;;;;;;;;;5.67;5.67;;;;;;;;5047466;28;9544;-77
2023/11/12 13:58:26;;;;;;;;;8.50;8.50;;;;;;;;5039537;28;9451;-77
2023/11/12 14:00:53;;;;;;;;;6.75;6.75;;;;;;;;5047348;28;9458;-76
2023/11/12 14:03:21;;;;;;;;;9.25;9.25;;;;;;;;5049265;28;9538;-75
2023/11/12 14:05:49;;;;;;;;;7.50;7.50;;;;;;;;5048569;28;9627;-76
2023/11/12 14:08:17;;;;;;;;;12.00;10.00;;;;;;;;5050421;28;9697;-75
2023/11/12 14:10:46;;;;;;;;;6.25;6.25;;;;;;;;5049133;28;9608;-76
2023/11/12 14:13:14;;;;;;;;;6.00;6.00;;;;;;;;5048195;28;9753;-76
2023/11/12 14:15:43;;;;;;;;;6.25;6.25;;;;;;;;5046206;28;9700;-75
2023/11/12 14:18:11;;;;;;;;;6.75;5.50;;;;;;;;5048391;28;9613;-78
2023/11/12 14:20:38;;;;;;;;;4.00;4.00;;;;;;;;5042114;28;9709;-76
2023/11/12 14:23:06;;;;;;;;;4.25;4.25;;;;;;;;5042788;28;9699;-77
2023/11/12 14:25:33;;;;;;;;;5.50;5.50;;;;;;;;5041092;28;9685;-75
2023/11/12 14:28:02;;;;;;;;;5.50;4.50;;;;;;;;5031761;28;10487;-75
2023/11/12 14:30:30;;;;;;;;;7.00;7.00;;;;;;;;5037729;28;10442;-78
2023/11/12 14:33:01;;;;;;;;;8.75;8.25;;;;;;;;5037215;28;9882;-74
2023/11/12 14:35:30;;;;;;;;;9.25;9.25;;;;;;;;5040782;28;9934;-79
2023/11/12 14:38:00;;;;;;;;;7.00;5.75;;;;;;;;5045109;28;9903;-78
2023/11/12 14:40:27;;;;;;;;;6.00;4.50;;;;;;;;5048726;28;9749;-73
2023/11/12 14:42:57;;;;;;;;;5.25;5.25;;;;;;;;5047312;28;9758;-77
2023/11/12 14:45:25;;;;;;;;;9.00;7.25;;;;;;;;5049946;28;9861;-74
2023/11/12 14:47:52;;;;;;;;;11.75;10.50;;;;;;;;5036440;28;9968;-77
2023/11/12 14:50:24;;;;;;;;;11.00;11.00;;;;;;;;5050500;28;9840;-73
2023/11/12 14:52:52;;;;;;;;;11.25;11.25;;;;;;;;5050553;28;9915;-75